Arroyo de Medina, México

1:52 AM CST en Diciembre 08, 2016 (GMT -0600)
UMPC San Jose Iturbide | | Change Station

Alt 6844 ft 21.01 °N, 100.39 °W | Updated 19 minutes ago

Despejado
Despejado
51.7 ° F
Sensación térmica 51.7 ° F
N
0.0
Viento Variable Viento desde Norte
Gusts 0.0 mph

Hoy
Alta -- | Baja -- ° F
--% Posibilidad de precipitaciones
Ayer
Alta -- | Baja -- ° F
Precip. -- pul
Presión 30.32 pul
Visibilidad 6.0 Millas
Nubes Nubes dispersas 25000 ft
Punto de rocío 31 ° F
Humedad 45%
Precipitaciones No disponible.
Espesor de la nieve No disponible.
7:06 AM 6:00 PM
Cuarto creciente, 61% visible
METAR MMQT 080645Z 00000KT 6SM SCT250 10/00 A3032 RMK 8/001 HZY
Presión 30.32 pul
Visibilidad 6.0 Millas
Nubes Nubes dispersas 25000 ft
Punto de rocío 31 ° F
Humedad 45%
Precipitaciones No disponible.
Espesor de la nieve No disponible.
7:06 AM 6:00 PM
Cuarto creciente, 61% visible
METAR MMQT 080645Z 00000KT 6SM SCT250 10/00 A3032 RMK 8/001 HZY

10-Day Weather Forecast

No radar image for this location.
×

Almanac

Astronomía

Dec. 08, 2016 Salida Puesta
Hora real
Crepúsculo civil
Crepúsculo náutico
Crepúsculo astronómico
Luna
Horas de luz
Horas de luz
Tomorrow will be .
, % of the Moon is Illuminated

Extremos de hoy

Máximos del país Bajas del país

Community

WunderPhotos

Upload Photos

1,956,259 ¡fotos cargadas!

WunderBlog® & News

Nearby

Calidad del aire

  Calidad del aire Índice AQ Contaminante
Not available.

Grosos de nieve

Estación Profundido Altura

Actividad de terremotos

Ciudad Distance Mag. Tiempo y dato
Magnitud mínima muestra es 2,5.

Temperaturas de aguas costeras

Lugar Temperatura

Stations

Estaciones meteorológicas cercanas

Ubicación de la estación Temp. Vientos helados Punto de rocío Humedad Viento Precip. Alt Actualizado Tipo